Time;durP1;ratioP1;P1;durP2;ratioP2;P2;SDS_P1;SDS_P2;PMS_P1;PMS_P2;Temp;Humidity;BMP_temperature;BMP_pressure;BME280_temperature;BME280_humidity;BME280_pressure;Samples;Min_cycle;Max_cycle;Signal;HPM_P1;HPM_P2
2022/03/09 00:45:31;;;;;;;14.35;12.20;;;4.50;66.50;;;;;;5196846;23;20236;-86
2022/03/09 00:47:57;;;;;;;16.35;12.18;;;4.50;65.90;;;;;;4922935;29;20228;-86
2022/03/09 00:50:24;;;;;;;18.50;13.32;;;4.50;65.60;;;;;;4918634;29;20213;-87
2022/03/09 00:52:51;;;;;;;16.40;12.95;;;4.40;65.50;;;;;;5301088;23;20207;-84
2022/03/09 01:03:05;;;;;;;15.48;12.55;;;4.50;64.10;;;;;;5354456;23;20226;-88
2022/03/09 01:39:08;;;;;;;14.98;11.75;;;4.40;63.40;;;;;;5452559;23;20710;-86
2022/03/09 03:16:41;;;;;;;19.25;12.90;;;4.00;65.20;;;;;;5196314;23;20255;-86
2022/03/09 03:19:08;;;;;;;16.33;12.60;;;4.00;65.40;;;;;;4975019;29;20207;-86
2022/03/09 03:21:35;;;;;;;16.60;12.75;;;4.00;65.40;;;;;;4976865;29;20264;-87
2022/03/09 03:24:02;;;;;;;15.95;13.85;;;4.20;65.70;;;;;;4980741;28;20210;-85
2022/03/09 03:26:29;;;;;;;15.50;11.88;;;4.00;65.30;;;;;;4962861;29;20255;-86
2022/03/09 03:28:58;;;;;;;17.80;12.93;;;4.00;65.30;;;;;;4962114;29;20626;-86
2022/03/09 03:31:25;;;;;;;17.77;13.10;;;4.00;65.20;;;;;;4975048;28;20275;-87
2022/03/09 03:33:53;;;;;;;17.13;13.02;;;4.00;65.40;;;;;;4985045;28;20621;-86
2022/03/09 03:36:20;;;;;;;17.48;12.38;;;3.90;65.70;;;;;;4982713;28;20207;-86
2022/03/09 03:38:46;;;;;;;16.88;11.98;;;3.90;66.20;;;;;;4982436;28;20226;-87
2022/03/09 03:41:13;;;;;;;16.63;13.32;;;3.80;66.10;;;;;;4957998;28;20206;-86
2022/03/09 03:43:40;;;;;;;15.32;12.43;;;3.80;66.70;;;;;;4958085;29;20210;-86
2022/03/09 03:46:07;;;;;;;17.98;12.77;;;3.80;67.10;;;;;;4962540;28;20215;-86
2022/03/09 03:48:34;;;;;;;16.83;13.57;;;3.80;66.30;;;;;;4980722;28;20225;-86
2022/03/09 03:51:02;;;;;;;16.20;12.48;;;3.80;65.70;;;;;;4981223;28;20211;-86
2022/03/09 03:53:28;;;;;;;15.73;12.32;;;3.80;66.00;;;;;;4969451;28;20389;-87
2022/03/09 03:55:55;;;;;;;15.43;12.68;;;3.80;66.50;;;;;;4980707;28;20211;-87
2022/03/09 03:58:22;;;;;;;17.08;12.40;;;3.80;66.60;;;;;;4981569;28;20209;-86
2022/03/09 04:00:48;;;;;;;18.17;12.73;;;3.70;66.90;;;;;;4977954;28;20210;-87
2022/03/09 04:03:15;;;;;;;15.30;12.57;;;3.70;67.20;;;;;;4978874;28;20214;-87
2022/03/09 04:05:42;;;;;;;15.18;12.07;;;3.70;67.60;;;;;;4977211;28;20574;-87
2022/03/09 04:08:10;;;;;;;14.90;11.63;;;3.60;68.10;;;;;;4980402;28;20222;-87
2022/03/09 04:10:36;;;;;;;16.30;11.50;;;3.60;68.80;;;;;;4977728;28;20214;-86
2022/03/09 04:13:04;;;;;;;16.27;12.77;;;3.60;68.70;;;;;;4977820;28;20207;-85
2022/03/09 04:15:31;;;;;;;16.40;11.90;;;3.60;69.10;;;;;;4959267;28;20288;-87
2022/03/09 04:17:58;;;;;;;18.30;13.02;;;3.50;69.00;;;;;;4959939;28;20203;-86
2022/03/09 04:20:25;;;;;;;16.17;12.45;;;3.50;68.90;;;;;;4962931;28;20204;-87
2022/03/09 04:22:52;;;;;;;19.23;13.75;;;3.50;68.20;;;;;;4980553;29;20187;-87
2022/03/09 04:46:03;;;;;;;16.83;12.23;;;3.60;67.10;;;;;;5008882;23;20235;-82
2022/03/09 04:56:17;;;;;;;16.38;13.45;;;3.60;67.10;;;;;;5473822;23;20238;-83
2022/03/09 05:01:21;;;;;;;14.55;11.63;;;3.60;68.00;;;;;;5187112;23;20262;-83
2022/03/09 05:03:47;;;;;;;13.63;10.77;;;3.60;67.80;;;;;;5309366;23;20238;-86
2022/03/09 05:06:14;;;;;;;17.40;11.95;;;3.50;68.00;;;;;;5019181;28;20209;-87
2022/03/09 05:08:41;;;;;;;15.85;12.70;;;3.50;68.50;;;;;;5019216;28;20229;-86
2022/03/09 05:11:08;;;;;;;14.40;11.40;;;3.50;68.20;;;;;;5018919;28;20203;-87
2022/03/09 05:21:22;;;;;;;18.25;12.23;;;3.50;68.70;;;;;;5779890;23;20274;-78
2022/03/09 05:24:02;;;;;;;16.15;11.45;;;3.40;69.70;;;;;;4941363;29;20192;-86
2022/03/09 05:39:53;;;;;;;18.52;12.00;;;3.20;71.50;;;;;;5226928;23;20267;-87
2022/03/09 05:42:23;;;;;;;19.73;13.45;;;3.10;71.60;;;;;;5136281;23;20223;-88
2022/03/09 05:44:54;;;;;;;17.60;12.20;;;3.10;71.70;;;;;;4979640;28;20275;-88
2022/03/09 05:47:26;;;;;;;16.92;11.38;;;2.90;71.80;;;;;;4979595;28;20228;-88
2022/03/09 05:49:54;;;;;;;16.17;11.77;;;3.00;71.80;;;;;;4979422;29;20184;-87
2022/03/09 05:52:24;;;;;;;19.15;12.68;;;3.10;71.50;;;;;;4978555;28;20263;-87
2022/03/09 05:54:52;;;;;;;19.70;13.45;;;3.10;71.10;;;;;;4978252;29;20198;-88
2022/03/09 05:57:23;;;;;;;17.15;12.80;;;3.00;71.50;;;;;;4978851;28;20227;-87
2022/03/09 05:59:53;;;;;;;17.70;13.38;;;2.90;71.40;;;;;;4972325;29;20221;-86
2022/03/09 06:41:20;;;;;;;19.73;13.13;;;3.40;71.00;;;;;;4923350;23;20215;-86
2022/03/09 06:43:47;;;;;;;17.95;14.55;;;3.30;71.70;;;;;;4981348;28;20182;-86
2022/03/09 06:46:13;;;;;;;21.02;15.02;;;3.20;72.90;;;;;;4981323;28;20187;-86
2022/03/09 06:51:16;;;;;;;18.25;14.43;;;3.20;73.70;;;;;;5951586;23;1236389;-72
2022/03/09 06:53:46;;;;;;;17.17;13.65;;;3.10;73.30;;;;;;5410877;23;20227;-87
2022/03/09 06:58:50;;;;;;;20.85;15.00;;;3.20;72.60;;;;;;5377508;23;20257;-88
2022/03/09 07:01:16;;;;;;;19.70;14.93;;;3.20;72.50;;;;;;4975284;29;20203;-86
2022/03/09 07:03:43;;;;;;;19.33;14.35;;;3.30;72.90;;;;;;4980437;29;20211;-86
2022/03/09 07:11:23;;;;;;;19.55;14.18;;;3.30;72.20;;;;;;5667734;23;20228;-87
2022/03/09 08:00:22;;;;;;;19.85;15.80;;;4.50;69.20;;;;;;4975831;28;20473;-88
2022/03/09 08:05:27;;;;;;;23.63;15.80;;;4.60;69.10;;;;;;4966983;29;20266;-87
2022/03/09 08:07:55;;;;;;;22.65;16.35;;;4.70;69.00;;;;;;4981512;29;20192;-86
2022/03/09 09:04:40;;;;;;;17.38;13.80;;;5.90;64.60;;;;;;5159589;23;20243;-66
2022/03/09 09:07:07;;;;;;;21.38;15.25;;;6.00;65.20;;;;;;4948032;28;20246;-69
2022/03/09 09:09:33;;;;;;;18.75;14.95;;;6.00;64.50;;;;;;4961734;28;20290;-69
2022/03/09 09:12:01;;;;;;;19.70;14.77;;;6.10;63.40;;;;;;4972025;28;20273;-70
2022/03/09 09:14:28;;;;;;;20.15;15.63;;;6.20;63.60;;;;;;4972737;28;20582;-70
2022/03/09 09:16:55;;;;;;;17.92;13.48;;;6.30;63.90;;;;;;4971250;28;20574;-70
2022/03/09 09:19:22;;;;;;;18.52;13.35;;;6.40;63.70;;;;;;4963278;28;20230;-70
2022/03/09 09:21:50;;;;;;;14.60;11.57;;;6.40;63.30;;;;;;4961550;28;20701;-70
2022/03/09 09:24:17;;;;;;;15.23;11.95;;;6.50;62.00;;;;;;4953317;29;20207;-69
2022/03/09 09:26:44;;;;;;;17.83;12.18;;;6.60;62.40;;;;;;4965579;28;20413;-70
2022/03/09 09:29:11;;;;;;;14.90;11.13;;;6.60;62.30;;;;;;4958643;28;20301;-69
2022/03/09 09:31:37;;;;;;;15.60;12.07;;;6.70;62.60;;;;;;4953334;28;20206;-70
2022/03/09 09:34:04;;;;;;;14.68;11.65;;;6.80;62.70;;;;;;4965576;28;20207;-68
2022/03/09 09:36:31;;;;;;;16.65;11.82;;;6.80;62.50;;;;;;4971151;28;20214;-69
2022/03/09 09:38:59;;;;;;;16.02;11.85;;;6.90;62.80;;;;;;4953144;29;20218;-68
2022/03/09 09:41:26;;;;;;;18.45;13.23;;;7.00;62.90;;;;;;4954036;28;20200;-69
2022/03/09 09:43:53;;;;;;;18.05;13.00;;;7.00;62.60;;;;;;4953157;29;20306;-67
2022/03/09 09:46:20;;;;;;;16.05;12.52;;;7.10;63.00;;;;;;4964477;28;20210;-68
2022/03/09 09:48:47;;;;;;;14.45;11.05;;;7.20;63.50;;;;;;4972131;28;20253;-70
2022/03/09 09:51:14;;;;;;;17.50;11.95;;;7.20;63.40;;;;;;4970716;28;20211;-68
2022/03/09 09:53:43;;;;;;;15.65;11.88;;;7.20;62.90;;;;;;4972372;28;20207;-69
2022/03/09 09:56:13;;;;;;;19.13;13.50;;;7.30;64.30;;;;;;4972228;28;20232;-68
2022/03/09 09:58:41;;;;;;;14.65;11.70;;;7.30;63.70;;;;;;4970941;28;20281;-70
2022/03/09 10:01:08;;;;;;;17.08;12.30;;;7.40;63.70;;;;;;4953199;29;20680;-67
2022/03/09 10:03:35;;;;;;;18.35;12.70;;;7.40;62.70;;;;;;4952757;28;20231;-68
2022/03/09 10:06:02;;;;;;;16.42;13.27;;;7.50;62.50;;;;;;4954387;28;20661;-67
2022/03/09 10:08:29;;;;;;;18.50;12.63;;;7.60;62.20;;;;;;4963461;28;20227;-67
2022/03/09 10:10:58;;;;;;;16.27;12.52;;;7.60;61.30;;;;;;4952587;28;20208;-68
2022/03/09 10:13:28;;;;;;;19.95;13.98;;;7.60;61.10;;;;;;4952642;29;20206;-67
2022/03/09 10:16:10;;;;;;;19.33;14.35;;;7.70;60.40;;;;;;4937511;29;20200;-71
2022/03/09 10:18:38;;;;;;;17.75;13.65;;;7.70;58.70;;;;;;4948469;29;20204;-71
2022/03/09 10:21:13;;;;;;;22.02;14.30;;;7.80;58.70;;;;;;4952393;28;20208;-70
2022/03/09 10:23:54;;;;;;;19.80;14.80;;;7.80;57.90;;;;;;4953934;28;20207;-70
2022/03/09 10:26:23;;;;;;;18.60;14.52;;;7.90;56.60;;;;;;4952521;29;20211;-70
2022/03/09 10:29:02;;;;;;;20.17;13.82;;;8.00;56.40;;;;;;4946502;29;20220;-70
2022/03/09 10:31:37;;;;;;;17.33;13.57;;;8.00;56.30;;;;;;4949111;29;20222;-70
2022/03/09 10:34:08;;;;;;;20.33;15.07;;;8.10;56.20;;;;;;4948453;29;20207;-70
2022/03/09 10:36:36;;;;;;;21.00;14.88;;;8.20;55.50;;;;;;4945961;29;20219;-71
2022/03/09 10:39:17;;;;;;;20.17;14.32;;;8.20;54.80;;;;;;4950714;28;20677;-70
2022/03/09 10:41:44;;;;;;;17.58;14.07;;;8.30;55.00;;;;;;4961187;28;20208;-70
2022/03/09 10:44:13;;;;;;;20.08;15.00;;;8.40;55.50;;;;;;4948309;29;20205;-70
2022/03/09 10:46:45;;;;;;;17.08;15.13;;;8.40;55.80;;;;;;4947747;28;20239;-70
2022/03/09 10:49:14;;;;;;;19.52;15.30;;;8.50;55.70;;;;;;4947952;29;20250;-71
2022/03/09 10:51:42;;;;;;;21.90;14.50;;;8.60;54.90;;;;;;4951787;28;20207;-70
2022/03/09 10:54:11;;;;;;;20.52;14.75;;;8.60;54.00;;;;;;4956151;28;20204;-70
2022/03/09 10:56:38;;;;;;;19.00;14.77;;;8.70;53.90;;;;;;4956446;29;20204;-69
2022/03/09 10:59:12;;;;;;;19.35;13.98;;;8.70;53.10;;;;;;4949705;28;20203;-70
2022/03/09 11:01:39;;;;;;;19.05;14.10;;;8.80;53.70;;;;;;4954619;28;20207;-71
2022/03/09 11:04:15;;;;;;;20.80;15.30;;;8.90;53.70;;;;;;4958048;28;20239;-70
2022/03/09 11:06:46;;;;;;;15.82;13.18;;;9.00;53.60;;;;;;4964259;28;20286;-70
2022/03/09 11:09:14;;;;;;;20.13;14.57;;;9.10;54.60;;;;;;4955123;29;20338;-71
2022/03/09 11:11:43;;;;;;;21.17;14.50;;;9.20;54.70;;;;;;4953881;28;20222;-71
2022/03/09 11:14:13;;;;;;;19.48;15.20;;;9.20;54.10;;;;;;4954687;29;20192;-70
2022/03/09 11:16:41;;;;;;;29.33;15.00;;;9.30;53.60;;;;;;4955267;29;20199;-70
2022/03/09 11:19:08;;;;;;;17.80;13.95;;;9.40;53.60;;;;;;4955409;28;20215;-70
2022/03/09 11:21:36;;;;;;;20.10;15.10;;;9.50;53.00;;;;;;4953655;29;20674;-70
2022/03/09 11:24:06;;;;;;;19.20;14.95;;;9.60;53.10;;;;;;4955286;28;20207;-70
2022/03/09 11:26:36;;;;;;;22.00;15.32;;;9.70;53.40;;;;;;4955209;29;20235;-70
2022/03/09 11:29:05;;;;;;;20.35;15.50;;;9.80;52.50;;;;;;4959287;28;20755;-70
2022/03/09 11:31:49;;;;;;;22.23;15.90;;;10.00;52.10;;;;;;4955235;28;20294;-71
2022/03/09 11:34:33;;;;;;;23.73;16.33;;;10.10;51.30;;;;;;4954604;29;20204;-71
2022/03/09 11:37:01;;;;;;;18.65;15.38;;;10.20;51.60;;;;;;4955021;28;20211;-71
2022/03/09 11:39:28;;;;;;;19.97;15.60;;;10.30;51.70;;;;;;4947183;28;20211;-71
2022/03/09 11:42:28;;;;;;;21.20;17.27;;;10.40;52.20;;;;;;4954359;29;20452;-70
2022/03/09 11:44:55;;;;;;;25.03;17.50;;;10.50;52.00;;;;;;4946855;29;20228;-71
2022/03/09 11:47:23;;;;;;;22.63;16.50;;;10.60;52.90;;;;;;4954642;28;20450;-69
2022/03/09 11:50:09;;;;;;;23.60;17.13;;;10.80;52.50;;;;;;4958670;28;20477;-69
2022/03/09 11:56:25;;;;;;;21.27;17.40;;;11.10;53.30;;;;;;4951406;28;20907;-68
2022/03/09 11:59:18;;;;;;;23.43;17.37;;;11.30;53.20;;;;;;4960141;28;20429;-68
2022/03/09 12:02:23;;;;;;;25.27;18.67;;;11.40;52.80;;;;;;4952285;29;20800;-68
2022/03/09 12:04:54;;;;;;;24.30;19.00;;;11.60;52.70;;;;;;4945883;29;20457;-71
2022/03/09 12:07:57;;;;;;;22.37;17.13;;;11.70;52.80;;;;;;4954394;29;20546;-71
2022/03/09 12:10:46;;;;;;;22.73;18.70;;;11.80;52.50;;;;;;4952511;28;20472;-69
2022/03/09 12:13:18;;;;;;;24.60;18.17;;;12.00;52.30;;;;;;4958033;28;20417;-70
2022/03/09 12:16:12;;;;;;;24.23;18.30;;;12.10;52.20;;;;;;4955119;28;21122;-69
2022/03/09 12:18:42;;;;;;;23.80;17.30;;;12.40;53.00;;;;;;4944086;29;20455;-70
2022/03/09 12:21:11;;;;;;;24.57;18.53;;;12.50;52.80;;;;;;4953868;29;20443;-70
2022/03/09 12:24:28;;;;;;;24.03;19.27;;;12.60;52.50;;;;;;4953792;29;20444;-70
2022/03/09 12:26:56;;;;;;;21.97;16.50;;;12.70;51.80;;;;;;4946434;28;20434;-70
2022/03/09 12:29:42;;;;;;;21.43;17.03;;;12.70;52.00;;;;;;4953733;28;20490;-68
2022/03/09 12:32:11;;;;;;;22.27;17.10;;;12.90;52.00;;;;;;4950303;29;20426;-68
2022/03/09 12:34:39;;;;;;;23.50;17.27;;;12.90;52.00;;;;;;4953567;29;20429;-70
2022/03/09 12:37:10;;;;;;;21.70;16.93;;;13.10;52.10;;;;;;4953544;29;20451;-70
2022/03/09 12:39:37;;;;;;;21.20;16.87;;;13.20;51.90;;;;;;4953581;28;20532;-71
2022/03/09 12:42:05;;;;;;;19.40;16.03;;;13.40;52.00;;;;;;4953820;28;20494;-71
2022/03/09 12:44:35;;;;;;;19.53;16.23;;;13.50;52.30;;;;;;4953091;29;20795;-70
2022/03/09 12:47:04;;;;;;;22.50;17.10;;;13.70;52.30;;;;;;4953581;28;20553;-72
2022/03/09 12:49:34;;;;;;;23.30;16.93;;;13.90;52.30;;;;;;4953220;29;20473;-68
2022/03/09 12:52:04;;;;;;;25.43;19.00;;;14.10;52.40;;;;;;4953375;29;20459;-70
2022/03/09 12:54:37;;;;;;;22.67;17.87;;;14.20;51.60;;;;;;4960855;28;20425;-70
2022/03/09 12:57:10;;;;;;;23.27;16.00;;;14.40;51.70;;;;;;4961564;28;20455;-71
2022/03/09 12:59:37;;;;;;;23.13;17.80;;;14.50;50.80;;;;;;4957776;28;20889;-73
2022/03/09 13:02:05;;;;;;;22.93;17.53;;;14.60;50.20;;;;;;4949359;29;20430;-73
2022/03/09 13:04:31;;;;;;;18.40;15.47;;;14.60;50.20;;;;;;4952779;29;20626;-71
2022/03/09 13:07:10;;;;;;;23.03;17.13;;;14.70;50.70;;;;;;4954371;28;20444;-74
2022/03/09 13:09:41;;;;;;;20.83;16.67;;;14.80;50.80;;;;;;4952914;28;20465;-69
2022/03/09 13:12:10;;;;;;;21.83;17.33;;;15.00;50.90;;;;;;4952932;29;20429;-69
2022/03/09 13:14:37;;;;;;;20.40;16.80;;;15.10;50.30;;;;;;4942809;29;20422;-69
2022/03/09 13:17:06;;;;;;;21.70;16.83;;;15.20;50.10;;;;;;4952845;29;20433;-69
2022/03/09 13:19:33;;;;;;;22.40;17.27;;;15.40;50.60;;;;;;4959885;28;20455;-70
2022/03/09 13:22:00;;;;;;;23.67;16.57;;;15.50;50.30;;;;;;4952404;28;20456;-70
2022/03/09 13:24:29;;;;;;;19.77;16.37;;;15.60;50.10;;;;;;4952397;29;20468;-70
2022/03/09 13:26:57;;;;;;;28.70;18.00;;;15.70;50.20;;;;;;4952417;28;20926;-70
2022/03/09 13:29:24;;;;;;;20.40;16.33;;;15.80;50.30;;;;;;4948841;29;20495;-70
2022/03/09 13:31:57;;;;;;;23.50;17.33;;;15.90;50.20;;;;;;4952523;29;20466;-70
2022/03/09 13:34:25;;;;;;;22.20;16.97;;;16.00;49.40;;;;;;4952293;29;20492;-70
2022/03/09 13:36:59;;;;;;;22.43;16.50;;;16.10;49.30;;;;;;4952379;29;20956;-71
2022/03/09 13:39:37;;;;;;;19.00;16.03;;;16.30;49.80;;;;;;4952859;28;20431;-70
2022/03/09 13:42:06;;;;;;;19.30;15.70;;;16.40;49.50;;;;;;4952539;28;20450;-72
2022/03/09 13:44:34;;;;;;;20.80;16.27;;;16.50;49.50;;;;;;4954406;28;20458;-70
2022/03/09 13:47:05;;;;;;;23.30;17.33;;;16.60;49.20;;;;;;4954029;28;20484;-71
2022/03/09 13:49:46;;;;;;;20.83;15.13;;;16.70;49.50;;;;;;4952677;28;20871;-69
2022/03/09 13:52:25;;;;;;;21.43;16.33;;;16.80;48.90;;;;;;4952679;29;20465;-71
2022/03/09 13:54:52;;;;;;;22.80;16.47;;;16.90;49.10;;;;;;4952645;29;20468;-71
2022/03/09 13:57:35;;;;;;;22.80;16.83;;;17.00;49.40;;;;;;4952119;28;20492;-72
2022/03/09 14:00:05;;;;;;;20.70;15.30;;;17.10;48.10;;;;;;4947177;28;20552;-73
2022/03/09 14:02:32;;;;;;;19.20;14.80;;;17.10;48.40;;;;;;4954124;28;20466;-73
2022/03/09 14:04:58;;;;;;;18.97;15.60;;;17.20;49.60;;;;;;4952150;29;20460;-72
2022/03/09 14:07:25;;;;;;;19.67;15.53;;;17.30;48.50;;;;;;4958286;28;20465;-73
2022/03/09 14:10:12;;;;;;;21.67;16.30;;;17.40;48.70;;;;;;4952379;29;20465;-71
2022/03/09 14:12:43;;;;;;;18.40;15.33;;;17.50;48.50;;;;;;4952424;29;20559;-72
2022/03/09 14:15:11;;;;;;;18.93;15.13;;;17.60;49.10;;;;;;4952056;29;20458;-71
2022/03/09 14:17:38;;;;;;;21.57;16.30;;;17.70;48.30;;;;;;4953725;28;20457;-71
2022/03/09 14:20:09;;;;;;;22.50;16.70;;;17.70;48.10;;;;;;4963318;28;20457;-71
2022/03/09 14:22:40;;;;;;;18.70;15.70;;;17.80;48.10;;;;;;4954226;28;20510;-71
2022/03/09 14:25:08;;;;;;;18.87;15.20;;;17.90;48.90;;;;;;4952080;29;20463;-71
2022/03/09 14:27:35;;;;;;;19.30;14.90;;;18.00;48.20;;;;;;4952250;29;20506;-72
2022/03/09 14:30:05;;;;;;;18.03;14.60;;;18.10;47.70;;;;;;4951840;29;20556;-73
2022/03/09 14:32:32;;;;;;;21.00;16.80;;;18.30;47.80;;;;;;4956872;28;20790;-71
2022/03/09 14:34:59;;;;;;;20.97;17.40;;;18.30;47.40;;;;;;4954019;28;20451;-78
2022/03/09 14:37:26;;;;;;;21.00;17.53;;;18.40;48.20;;;;;;4955813;29;20482;-72
2022/03/09 14:39:53;;;;;;;19.53;15.80;;;18.30;47.30;;;;;;4956056;29;20451;-71
2022/03/09 14:42:20;;;;;;;18.33;15.03;;;18.40;47.50;;;;;;4955792;28;20517;-71
2022/03/09 14:44:46;;;;;;;20.80;15.83;;;18.50;47.50;;;;;;4955656;29;20458;-71
2022/03/09 14:47:14;;;;;;;18.77;15.30;;;18.50;46.90;;;;;;4954212;29;20446;-71
2022/03/09 14:49:42;;;;;;;18.47;16.10;;;18.50;46.90;;;;;;4941608;29;20454;-72
2022/03/09 14:52:11;;;;;;;20.00;15.33;;;18.60;46.80;;;;;;4958748;28;20466;-73
2022/03/09 14:54:38;;;;;;;19.97;16.60;;;18.60;46.80;;;;;;4962442;28;20828;-75
2022/03/09 14:57:05;;;;;;;18.90;15.73;;;18.70;46.90;;;;;;4955769;29;20455;-76
2022/03/09 14:59:32;;;;;;;20.03;16.00;;;18.70;47.40;;;;;;4955953;29;20508;-74
2022/03/09 15:01:59;;;;;;;19.33;15.87;;;18.70;47.20;;;;;;4956275;28;20528;-76
2022/03/09 15:04:27;;;;;;;20.50;15.80;;;18.70;46.60;;;;;;4965973;23;20481;-71
2022/03/09 15:06:54;;;;;;;23.87;17.83;;;18.70;46.10;;;;;;4955374;29;20447;-72
2022/03/09 15:09:22;;;;;;;19.67;15.33;;;18.70;45.80;;;;;;4939532;29;20463;-72
2022/03/09 15:11:48;;;;;;;20.60;16.30;;;18.80;46.60;;;;;;4949777;29;20492;-70
2022/03/09 15:14:15;;;;;;;21.63;17.70;;;18.80;47.40;;;;;;4950793;29;20464;-69
2022/03/09 15:16:42;;;;;;;20.77;16.57;;;18.80;46.00;;;;;;4938164;29;20456;-69
2022/03/09 15:19:09;;;;;;;22.10;17.17;;;18.80;46.20;;;;;;4951746;29;20780;-68
2022/03/09 15:21:41;;;;;;;22.70;16.77;;;18.80;46.00;;;;;;4940913;29;20426;-70
2022/03/09 15:24:07;;;;;;;20.20;17.07;;;18.80;46.00;;;;;;4951987;29;20506;-75
2022/03/09 15:26:34;;;;;;;21.40;16.10;;;18.80;45.80;;;;;;4952959;29;20916;-71
2022/03/09 15:29:02;;;;;;;21.37;15.93;;;18.80;45.80;;;;;;4939230;29;20434;-71
2022/03/09 15:31:29;;;;;;;21.60;15.50;;;18.80;46.10;;;;;;4944046;29;20849;-72
2022/03/09 15:33:56;;;;;;;21.17;16.83;;;18.80;46.10;;;;;;4956518;28;20798;-75
2022/03/09 15:36:25;;;;;;;20.90;16.77;;;18.80;45.70;;;;;;4954984;29;20455;-74
2022/03/09 15:38:53;;;;;;;22.23;17.23;;;18.70;45.60;;;;;;4944761;29;20466;-73
2022/03/09 15:41:20;;;;;;;20.03;16.13;;;18.70;45.90;;;;;;4953116;28;20439;-73
2022/03/09 15:43:54;;;;;;;19.70;16.97;;;18.60;46.10;;;;;;4942089;29;20550;-69
2022/03/09 15:46:22;;;;;;;18.73;14.27;;;18.50;45.80;;;;;;4947271;28;20506;-68
2022/03/09 15:48:48;;;;;;;18.40;15.80;;;18.40;45.90;;;;;;4953293;29;20430;-69
2022/03/09 15:51:16;;;;;;;17.73;15.73;;;18.20;46.40;;;;;;4951042;29;20479;-73
2022/03/09 15:53:43;;;;;;;22.87;17.10;;;18.10;47.00;;;;;;4949198;29;20834;-74
2022/03/09 15:56:11;;;;;;;19.00;14.63;;;18.00;47.00;;;;;;4944503;29;20910;-75
2022/03/09 15:58:38;;;;;;;20.27;15.20;;;17.90;47.30;;;;;;4954695;29;20457;-75
2022/03/09 16:04:34;;;;;;;22.53;15.23;;;17.50;47.90;;;;;;4883332;28;20476;-73
2022/03/09 16:07:00;;;;;;;21.70;17.53;;;17.20;48.10;;;;;;4955439;28;20537;-73
2022/03/09 16:09:27;;;;;;;20.40;15.90;;;17.00;48.00;;;;;;4940377;29;20455;-69
2022/03/09 16:11:55;;;;;;;21.73;16.07;;;16.90;48.50;;;;;;4947279;29;20492;-70
2022/03/09 16:14:22;;;;;;;24.73;15.43;;;16.70;48.90;;;;;;4936991;29;20472;-71
2022/03/09 16:16:49;;;;;;;34.60;17.07;;;16.60;49.70;;;;;;4949208;29;20457;-69
2022/03/09 16:19:16;;;;;;;27.73;17.30;;;16.40;50.10;;;;;;4938079;29;20540;-70
2022/03/09 16:21:44;;;;;;;24.40;16.90;;;16.30;50.80;;;;;;4948645;29;20970;-69
2022/03/09 16:27:34;;;;;;;24.83;16.70;;;16.00;51.30;;;;;;4938628;28;20443;-73
2022/03/09 16:30:01;;;;;;;27.53;17.90;;;15.80;51.20;;;;;;4946043;29;20866;-71
2022/03/09 16:32:28;;;;;;;28.93;17.40;;;15.60;51.70;;;;;;4945529;29;20436;-69
2022/03/09 16:34:55;;;;;;;22.63;15.87;;;15.50;50.80;;;;;;4939062;29;20475;-69
2022/03/09 16:37:22;;;;;;;17.57;14.00;;;15.40;52.10;;;;;;4950325;29;20881;-70
2022/03/09 16:39:49;;;;;;;21.70;15.20;;;15.30;53.10;;;;;;4944296;28;20770;-72
2022/03/09 16:42:15;;;;;;;20.70;14.63;;;15.20;53.60;;;;;;4944236;29;20426;-69
2022/03/09 16:44:43;;;;;;;21.73;16.30;;;15.20;53.80;;;;;;4940233;29;20423;-69
2022/03/09 16:47:10;;;;;;;20.77;14.57;;;15.00;54.00;;;;;;4941623;29;20446;-72
2022/03/09 16:49:37;;;;;;;21.03;15.97;;;15.00;54.30;;;;;;4952659;29;20462;-72
2022/03/09 16:52:04;;;;;;;21.27;16.20;;;14.90;54.50;;;;;;4950480;29;20514;-71
2022/03/09 16:54:31;;;;;;;20.23;14.17;;;14.80;54.80;;;;;;4941807;29;20834;-71
2022/03/09 16:56:57;;;;;;;20.70;16.03;;;14.70;55.40;;;;;;4948049;28;20458;-70
2022/03/09 16:59:24;;;;;;;19.77;15.23;;;14.60;56.20;;;;;;4938631;29;20844;-71
2022/03/09 17:01:52;;;;;;;19.37;15.47;;;14.50;56.30;;;;;;4934315;29;20507;-71
2022/03/09 17:04:19;;;;;;;19.67;15.90;;;14.40;56.60;;;;;;4937752;29;21019;-72
2022/03/09 17:06:45;;;;;;;21.63;16.30;;;14.30;57.00;;;;;;4945305;29;20458;-71
2022/03/09 17:09:12;;;;;;;21.27;16.10;;;14.20;57.30;;;;;;4937277;29;20456;-70
2022/03/09 17:11:39;;;;;;;19.00;15.23;;;14.10;57.90;;;;;;4948220;29;20474;-71
2022/03/09 17:14:06;;;;;;;19.70;15.73;;;14.00;58.20;;;;;;4943792;29;20956;-72
2022/03/09 17:16:33;;;;;;;22.90;16.60;;;13.90;58.70;;;;;;4946142;29;20462;-72
2022/03/09 17:19:01;;;;;;;20.47;15.53;;;13.80;59.20;;;;;;4937385;29;20807;-70
2022/03/09 17:21:27;;;;;;;19.37;15.37;;;13.60;58.80;;;;;;4937394;29;20499;-69
2022/03/09 17:23:54;;;;;;;21.30;15.53;;;13.50;59.30;;;;;;4942487;28;20459;-70
2022/03/09 17:26:21;;;;;;;22.37;16.47;;;13.40;59.50;;;;;;4944120;29;20965;-72
2022/03/09 17:28:48;;;;;;;23.20;16.00;;;13.20;59.70;;;;;;4939046;29;20460;-71
2022/03/09 17:31:14;;;;;;;23.67;14.80;;;13.00;60.00;;;;;;4949415;29;21037;-73
2022/03/09 17:33:42;;;;;;;21.50;16.03;;;12.90;60.90;;;;;;4937566;29;20825;-73
2022/03/09 17:36:10;;;;;;;21.63;15.27;;;12.90;61.30;;;;;;4942948;29;20430;-70
2022/03/09 17:38:37;;;;;;;20.37;15.07;;;12.80;61.40;;;;;;4949824;28;20458;-71
2022/03/09 17:41:04;;;;;;;20.40;14.90;;;12.70;62.50;;;;;;4955623;28;20455;-71
2022/03/09 17:43:31;;;;;;;20.10;15.20;;;12.60;61.80;;;;;;4948332;29;20472;-70
2022/03/09 17:45:58;;;;;;;21.13;16.53;;;12.60;62.50;;;;;;4941082;29;20447;-78
2022/03/09 17:48:24;;;;;;;20.13;15.93;;;12.60;62.90;;;;;;4949140;29;20529;-71
2022/03/09 17:50:51;;;;;;;21.73;16.17;;;12.40;63.20;;;;;;4938243;29;21001;-71
2022/03/09 17:53:19;;;;;;;19.93;15.33;;;12.30;62.80;;;;;;4948692;29;20493;-71
2022/03/09 17:55:46;;;;;;;22.40;17.37;;;12.20;63.30;;;;;;4952379;29;20455;-71
2022/03/09 17:58:13;;;;;;;24.70;15.63;;;12.10;63.50;;;;;;4943178;29;20509;-70
2022/03/09 18:01:19;;;;;;;23.07;16.40;;;12.00;63.60;;;;;;4945948;29;20418;-68
2022/03/09 18:03:45;;;;;;;22.07;16.03;;;11.80;64.80;;;;;;4922819;29;20522;-70
2022/03/09 18:06:12;;;;;;;27.20;19.57;;;11.60;64.10;;;;;;4944060;29;20429;-70
2022/03/09 18:08:40;;;;;;;34.03;23.23;;;11.60;64.70;;;;;;4941436;28;20438;-70
2022/03/09 18:11:08;;;;;;;23.63;18.57;;;11.40;65.10;;;;;;4951473;29;20518;-71
2022/03/09 18:13:34;;;;;;;74.67;46.50;;;11.30;65.30;;;;;;4940128;29;20856;-71
2022/03/09 18:16:01;;;;;;;69.87;41.73;;;11.40;65.40;;;;;;4947300;29;20946;-73
2022/03/09 18:18:28;;;;;;;59.00;33.47;;;11.30;65.60;;;;;;4947153;29;20498;-70
2022/03/09 18:20:54;;;;;;;61.67;33.17;;;11.30;65.90;;;;;;4943616;29;20518;-72
2022/03/09 18:23:21;;;;;;;69.90;37.17;;;11.20;65.30;;;;;;4946231;29;20458;-71
2022/03/09 18:25:49;;;;;;;142.63;69.17;;;11.20;66.20;;;;;;4941296;29;20466;-72
2022/03/09 18:28:16;;;;;;;203.87;110.20;;;11.10;66.00;;;;;;4945084;29;20454;-71
2022/03/09 18:30:44;;;;;;;250.37;134.73;;;11.00;65.80;;;;;;4948876;29;20458;-72
2022/03/09 18:33:11;;;;;;;170.53;102.53;;;11.00;66.20;;;;;;4938743;29;20455;-71
2022/03/09 18:35:37;;;;;;;142.10;85.83;;;10.90;66.20;;;;;;4949206;29;20521;-72
2022/03/09 18:38:04;;;;;;;77.23;49.57;;;11.00;67.10;;;;;;4943399;29;20530;-71
2022/03/09 18:40:32;;;;;;;49.30;31.53;;;11.00;67.40;;;;;;4954381;29;20426;-70
2022/03/09 18:43:06;;;;;;;34.10;24.00;;;11.00;67.50;;;;;;4948669;29;20562;-70
2022/03/09 18:45:33;;;;;;;29.13;21.53;;;11.00;67.30;;;;;;4939948;29;20538;-69
2022/03/09 18:48:00;;;;;;;28.90;19.60;;;11.00;67.60;;;;;;4944610;29;20467;-69
2022/03/09 18:50:27;;;;;;;33.37;20.67;;;11.00;67.70;;;;;;4942617;29;20510;-70
2022/03/09 18:52:54;;;;;;;28.67;19.87;;;10.90;67.40;;;;;;4949838;29;20490;-69
2022/03/09 18:55:20;;;;;;;25.00;18.00;;;10.80;67.40;;;;;;4938132;29;20499;-69
2022/03/09 18:57:47;;;;;;;26.47;18.83;;;10.80;67.40;;;;;;4948414;29;20460;-69
2022/03/09 19:00:16;;;;;;;25.37;17.00;;;10.70;68.00;;;;;;4946088;29;20434;-70
2022/03/09 19:02:43;;;;;;;26.60;20.03;;;10.70;68.80;;;;;;4940831;29;20456;-70
2022/03/09 19:05:10;;;;;;;27.37;20.43;;;10.70;68.60;;;;;;4949363;29;20584;-70
2022/03/09 19:07:37;;;;;;;30.63;23.00;;;10.60;68.80;;;;;;4949356;29;20893;-69
2022/03/09 19:10:04;;;;;;;31.97;23.73;;;10.60;69.20;;;;;;4942531;29;20511;-68
2022/03/09 19:12:31;;;;;;;34.30;25.20;;;10.50;69.30;;;;;;4946507;29;20505;-68
2022/03/09 19:14:57;;;;;;;32.47;23.60;;;10.50;69.70;;;;;;4938760;29;20459;-70
2022/03/09 19:17:26;;;;;;;29.33;21.55;;;10.40;69.80;;;;;;4950475;29;20934;-69